Startpagina
METAR-TAF:

METAR-TAF

Vliegvelden :

Brussels South Charleroi Airport

Charleroi, België

breedte: 50-28N, lengte: 004-27E, hoogte: 187 m

Actueel weer

Dit bericht is 15 minuten geleden gemaakt, om 23:20 UTC
Wind 3 kt uit het noorden
Temperatuur 13°C
Vochtigheid 82%
Druk 1027 hPa
Zicht 10 km of meer
geen wolken onder 1500 m en geen cumulonimbus

METAR: EBCI 122320Z 36003KT CAVOK 13/10 Q1027 NOSIG

Tijdstip: 01:35 (23:35 UTC)

Verwachting

Dit bericht is 31 minuten geleden gemaakt, om 23:04 UTC
Verwachting geldig van 13 om 00 UTC tot 14 om 06 UTC
Wind 5 kt uit het noorden
Zicht 10 km of meer
Weinig wolken op 4500 ft
Kans 30%
van 13 om 02 UTC tot 13 om 05 UTC
Zicht: 4000 m
nevel, Ondiepe mist

TAF: EBCI 122304Z 1300/1406 01005KT 9999 FEW045 PROB30 1302/1305 4000 BR MIFG

Waarnemingen en weersverwachtingen van meer dan 4000 vliegvelden (METAR en TAF).

De beschikbare stations zijn de gele en rode punten op de kaart.

Ga met uw muis naar het station om de naam te zien.

Klik dan om waarnemingen en weersverwachtingen te zien.

kaart wijzigen: klik op de groene knoppen met een zwart kruis om in te zoomen, op de groene knop met een streepje om uit te zoomen of op de groene pijlen voor aangrenzende kaarten.


METAR-TAF: